createdAt,value
2023-01-23T00:00:55.572Z,22.33
2023-01-23T00:03:22.097Z,23.63
2023-01-23T00:06:03.081Z,20.07
2023-01-23T00:08:29.867Z,21.73
2023-01-23T00:10:56.538Z,19.37
2023-01-23T00:13:23.058Z,19.17
2023-01-23T00:15:49.875Z,19.50
2023-01-23T00:18:16.433Z,21.20
2023-01-23T00:20:43.167Z,20.90
2023-01-23T00:23:10.992Z,21.77
2023-01-23T00:25:37.682Z,19.47
2023-01-23T00:28:04.505Z,19.93
2023-01-23T00:30:30.948Z,17.27
2023-01-23T00:32:57.392Z,19.47
2023-01-23T00:35:23.823Z,20.23
2023-01-23T00:37:50.669Z,20.30
2023-01-23T00:40:17.320Z,19.67
2023-01-23T00:42:43.839Z,18.70
2023-01-23T00:45:10.706Z,20.03
2023-01-23T00:47:37.199Z,16.03
2023-01-23T00:50:03.838Z,19.03
2023-01-23T00:52:30.650Z,15.73
2023-01-23T00:54:57.144Z,22.10
2023-01-23T00:57:23.829Z,16.30
2023-01-23T00:59:50.318Z,20.87
2023-01-23T01:02:16.895Z,17.43
2023-01-23T01:04:43.366Z,19.13
2023-01-23T01:07:09.897Z,17.20
2023-01-23T01:09:36.362Z,17.47
2023-01-23T01:12:02.803Z,19.10
2023-01-23T01:14:29.352Z,17.67
2023-01-23T01:16:55.819Z,20.13
2023-01-23T01:19:22.279Z,17.60
2023-01-23T01:21:48.739Z,16.10
2023-01-23T01:24:15.204Z,18.07
2023-01-23T01:26:41.677Z,18.37
2023-01-23T01:29:08.150Z,19.27
2023-01-23T01:31:34.774Z,15.90
2023-01-23T01:34:01.356Z,19.70
2023-01-23T01:36:28.165Z,17.20
2023-01-23T01:38:54.630Z,22.70
2023-01-23T01:41:21.199Z,19.57
2023-01-23T01:43:47.645Z,19.33
2023-01-23T01:46:24.214Z,24.83
2023-01-23T01:48:56.984Z,21.17
2023-01-23T01:51:45.236Z,20.27
2023-01-23T01:54:21.847Z,18.80
2023-01-23T01:57:20.876Z,20.87
2023-01-23T01:59:50.527Z,17.37
2023-01-23T02:02:26.898Z,18.80
2023-01-23T02:04:59.575Z,19.80
2023-01-23T02:07:34.645Z,19.13
2023-01-23T02:10:03.654Z,20.00
2023-01-23T02:12:31.874Z,19.13
2023-01-23T02:14:58.403Z,19.20
2023-01-23T02:17:24.973Z,19.63
2023-01-23T02:20:01.134Z,19.63
2023-01-23T02:22:53.875Z,22.70
2023-01-23T02:25:29.395Z,19.70
2023-01-23T02:27:55.928Z,19.97
2023-01-23T02:30:23.097Z,19.37
2023-01-23T02:32:49.606Z,22.77
2023-01-23T02:35:26.289Z,17.90
2023-01-23T02:37:54.845Z,19.73
2023-01-23T02:40:30.877Z,21.40
2023-01-23T02:42:58.708Z,21.70
2023-01-23T02:45:25.823Z,18.20
2023-01-23T02:47:52.812Z,22.20
2023-01-23T02:50:19.556Z,20.47
2023-01-23T02:52:47.172Z,22.97
2023-01-23T02:55:13.882Z,20.40
2023-01-23T02:57:40.301Z,20.50
2023-01-23T03:00:16.218Z,22.00
2023-01-23T03:02:43.612Z,19.23
2023-01-23T03:05:10.668Z,18.07
2023-01-23T03:07:37.147Z,19.50
2023-01-23T03:10:04.563Z,17.87
2023-01-23T03:12:31.433Z,20.70
2023-01-23T03:14:58.678Z,21.70
2023-01-23T03:17:25.549Z,23.27
2023-01-23T03:19:52.186Z,22.90
2023-01-23T03:22:18.864Z,24.60
2023-01-23T03:24:45.367Z,22.70
2023-01-23T03:27:12.141Z,21.20
2023-01-23T03:29:57.165Z,19.00
2023-01-23T03:32:26.057Z,19.70
2023-01-23T03:34:52.604Z,21.13
2023-01-23T03:37:19.793Z,19.13
2023-01-23T03:40:05.401Z,21.17
2023-01-23T03:42:35.625Z,18.87
2023-01-23T03:45:02.980Z,21.70
2023-01-23T03:47:29.419Z,22.63
2023-01-23T03:49:56.259Z,22.07
2023-01-23T03:52:23.276Z,21.00
2023-01-23T03:54:49.909Z,19.20
2023-01-23T03:57:16.585Z,24.60
2023-01-23T03:59:43.170Z,20.30
2023-01-23T04:02:09.785Z,24.10
2023-01-23T04:04:36.365Z,20.77
2023-01-23T04:07:03.845Z,22.80
2023-01-23T04:09:30.444Z,20.50
2023-01-23T04:12:00.090Z,23.43
2023-01-23T04:14:27.759Z,21.30
2023-01-23T04:16:54.552Z,23.80
2023-01-23T04:19:21.575Z,22.07
2023-01-23T04:21:48.994Z,20.73
2023-01-23T04:24:16.856Z,27.10
2023-01-23T04:26:43.311Z,19.63
2023-01-23T04:29:09.801Z,21.03
2023-01-23T04:31:36.624Z,21.07
2023-01-23T04:34:03.578Z,24.07
2023-01-23T04:36:30.181Z,25.00
2023-01-23T04:38:57.058Z,25.03
2023-01-23T04:41:27.009Z,24.40
2023-01-23T04:43:53.453Z,21.53
2023-01-23T04:46:20.324Z,21.70
2023-01-23T04:48:48.809Z,23.53
2023-01-23T04:51:15.544Z,20.80
2023-01-23T04:53:42.298Z,24.73
2023-01-23T04:56:08.832Z,22.77
2023-01-23T04:58:35.280Z,27.07
2023-01-23T05:01:03.848Z,21.73
2023-01-23T05:03:30.322Z,25.20
2023-01-23T05:05:56.781Z,21.17
2023-01-23T05:08:23.251Z,23.30
2023-01-23T05:10:49.798Z,22.67
2023-01-23T05:13:16.368Z,21.00
2023-01-23T05:15:42.940Z,20.40
2023-01-23T05:18:09.462Z,19.97
2023-01-23T05:20:36.149Z,23.43
2023-01-23T05:23:02.901Z,20.20
2023-01-23T05:25:29.470Z,19.57
2023-01-23T05:27:56.142Z,21.23
2023-01-23T05:30:23.295Z,20.67
2023-01-23T05:32:49.941Z,21.47
2023-01-23T05:35:17.091Z,22.87
2023-01-23T05:37:43.635Z,21.77
2023-01-23T05:40:11.751Z,23.17
2023-01-23T05:42:38.460Z,22.33
2023-01-23T05:45:05.403Z,20.83
2023-01-23T05:47:31.867Z,24.47
2023-01-23T05:49:58.396Z,26.90
2023-01-23T05:52:24.911Z,23.50
2023-01-23T05:54:51.683Z,20.57
2023-01-23T05:57:18.319Z,21.20
2023-01-23T05:59:44.885Z,23.50
2023-01-23T06:02:11.800Z,25.77
2023-01-23T06:04:38.397Z,24.50
2023-01-23T06:07:05.159Z,26.27
2023-01-23T06:09:31.815Z,24.23
2023-01-23T06:11:58.258Z,22.57
2023-01-23T06:14:24.702Z,24.73
2023-01-23T06:16:51.263Z,19.87
2023-01-23T06:19:17.715Z,22.83
2023-01-23T06:21:44.311Z,28.70
2023-01-23T06:24:10.842Z,20.73
2023-01-23T06:26:37.339Z,28.30
2023-01-23T06:29:04.264Z,22.47
2023-01-23T06:31:32.508Z,24.20
2023-01-23T06:33:59.950Z,23.90
2023-01-23T06:36:26.897Z,22.37
2023-01-23T06:38:53.491Z,23.07
2023-01-23T06:41:20.336Z,22.80
2023-01-23T06:43:46.809Z,27.93
2023-01-23T06:46:13.635Z,22.77
2023-01-23T06:48:40.201Z,23.20
2023-01-23T06:51:06.822Z,22.50
2023-01-23T06:53:33.793Z,22.50
2023-01-23T06:56:05.649Z,24.57
2023-01-23T06:58:32.876Z,26.47
2023-01-23T07:00:59.421Z,23.43
2023-01-23T07:03:25.999Z,25.43
2023-01-23T07:05:52.567Z,22.40
2023-01-23T07:08:19.115Z,23.20
2023-01-23T07:10:45.598Z,25.63
2023-01-23T07:13:12.711Z,26.50
2023-01-23T07:15:41.037Z,23.67
2023-01-23T07:18:07.774Z,24.77
2023-01-23T07:20:34.286Z,23.60
2023-01-23T07:23:00.756Z,23.23
2023-01-23T07:25:27.317Z,22.23
2023-01-23T07:27:53.771Z,23.17
2023-01-23T07:30:20.901Z,20.17
2023-01-23T07:32:47.669Z,25.60
2023-01-23T07:35:14.122Z,21.80
2023-01-23T07:37:40.734Z,18.40
2023-01-23T07:40:07.722Z,18.90
2023-01-23T07:42:34.523Z,19.40
2023-01-23T07:45:01.049Z,19.23
2023-01-23T07:47:27.584Z,20.77
2023-01-23T07:49:54.055Z,19.30
2023-01-23T07:52:20.537Z,19.33
2023-01-23T07:54:47.208Z,18.57
2023-01-23T07:57:13.652Z,18.10
2023-01-23T07:59:40.107Z,18.70
2023-01-23T08:02:08.311Z,17.13
2023-01-23T08:04:34.899Z,16.50
2023-01-23T08:07:01.880Z,19.90
2023-01-23T08:09:28.353Z,17.57
2023-01-23T08:11:54.952Z,16.10
2023-01-23T08:14:21.707Z,17.60
2023-01-23T08:16:52.106Z,17.00
2023-01-23T08:19:19.329Z,18.47
2023-01-23T08:21:45.992Z,20.30
2023-01-23T08:24:13.059Z,19.43
2023-01-23T08:26:40.644Z,15.77
2023-01-23T08:29:07.189Z,17.90
2023-01-23T08:31:33.888Z,19.70
2023-01-23T08:34:00.425Z,17.00
2023-01-23T08:36:26.909Z,16.40
2023-01-23T08:38:53.729Z,17.30
2023-01-23T08:41:20.217Z,18.40
2023-01-23T08:43:46.699Z,15.93
2023-01-23T08:46:13.239Z,18.00
2023-01-23T08:48:39.772Z,17.77
2023-01-23T08:51:08.830Z,16.47
2023-01-23T08:53:35.601Z,13.00
2023-01-23T08:56:07.555Z,16.20
2023-01-23T08:58:34.587Z,16.23
2023-01-23T09:01:01.135Z,17.97
2023-01-23T09:03:28.426Z,17.17
2023-01-23T09:05:55.045Z,14.40
2023-01-23T09:08:21.506Z,15.70
2023-01-23T09:10:48.045Z,14.20
2023-01-23T09:13:14.634Z,14.13
2023-01-23T09:15:41.172Z,12.90
2023-01-23T09:18:07.704Z,13.40
2023-01-23T09:20:34.328Z,15.40
2023-01-23T09:23:00.985Z,18.13
2023-01-23T09:25:27.517Z,15.83
2023-01-23T09:27:54.204Z,13.87
2023-01-23T09:30:21.056Z,18.23
2023-01-23T09:32:47.703Z,16.47
2023-01-23T09:35:14.205Z,15.20
2023-01-23T09:37:59.464Z,15.60
2023-01-23T09:40:37.839Z,14.50
2023-01-23T09:43:28.569Z,13.87
2023-01-23T09:46:11.090Z,14.43
2023-01-23T09:48:58.104Z,14.47
2023-01-23T09:51:34.488Z,12.80
2023-01-23T09:54:07.652Z,14.00
2023-01-23T09:56:38.391Z,13.60
2023-01-23T09:59:12.446Z,13.83
2023-01-23T10:01:38.985Z,16.23
2023-01-23T10:04:06.013Z,14.20
2023-01-23T10:07:11.147Z,12.77
2023-01-23T10:09:51.474Z,13.33
2023-01-23T10:12:42.744Z,14.00
2023-01-23T10:15:15.282Z,15.97
2023-01-23T10:18:05.093Z,15.20
2023-01-23T10:21:09.326Z,14.63
2023-01-23T10:23:47.825Z,18.57
2023-01-23T10:26:31.780Z,16.23
2023-01-23T10:29:03.397Z,18.00
2023-01-23T10:31:38.476Z,14.37
2023-01-23T10:34:11.159Z,14.43
2023-01-23T10:37:10.060Z,16.60
2023-01-23T10:39:48.908Z,14.83
2023-01-23T10:42:19.697Z,15.73
2023-01-23T10:44:46.340Z,17.80
2023-01-23T10:47:38.655Z,15.87
2023-01-23T10:50:06.251Z,16.93
2023-01-23T10:52:46.512Z,14.10
2023-01-23T10:55:19.686Z,23.27
2023-01-23T10:57:53.653Z,16.00
2023-01-23T11:00:22.061Z,16.17
2023-01-23T11:02:48.951Z,18.43
2023-01-23T11:05:51.162Z,18.20
2023-01-23T11:08:27.331Z,17.73
2023-01-23T11:10:57.133Z,21.23
2023-01-23T11:13:29.131Z,18.13
2023-01-23T11:15:56.451Z,17.57
2023-01-23T11:18:31.346Z,17.53
2023-01-23T11:20:57.913Z,18.20
2023-01-23T11:23:25.258Z,18.00
2023-01-23T11:25:53.153Z,16.57
2023-01-23T11:28:47.753Z,20.30
2023-01-23T11:31:22.057Z,14.80
2023-01-23T11:34:04.155Z,15.40
2023-01-23T11:36:43.101Z,18.73
2023-01-23T11:39:23.871Z,14.73
2023-01-23T11:41:50.375Z,16.03
2023-01-23T11:44:19.311Z,15.63
2023-01-23T11:47:17.258Z,16.63
2023-01-23T11:49:55.933Z,14.30
2023-01-23T11:52:28.452Z,19.63
2023-01-23T11:55:16.663Z,21.70
2023-01-23T11:58:01.289Z,17.53
2023-01-23T12:00:56.103Z,16.40
2023-01-23T12:03:40.801Z,15.57
2023-01-23T12:06:23.759Z,19.50
2023-01-23T12:09:11.034Z,17.67
2023-01-23T12:12:10.471Z,15.60
2023-01-23T12:15:03.537Z,19.63
2023-01-23T12:18:03.424Z,21.13
2023-01-23T12:20:49.280Z,20.43
2023-01-23T12:23:45.540Z,17.03
2023-01-23T12:26:19.496Z,18.40
2023-01-23T12:28:49.010Z,19.30
2023-01-23T12:31:15.603Z,16.90
2023-01-23T12:34:09.724Z,18.30
2023-01-23T12:36:59.451Z,14.70
2023-01-23T12:39:53.345Z,16.53
2023-01-23T12:42:32.697Z,16.33
2023-01-23T12:45:11.403Z,17.40
2023-01-23T12:47:45.585Z,17.97
2023-01-23T12:50:20.398Z,22.00
2023-01-23T12:52:55.153Z,17.30
2023-01-23T12:55:25.025Z,17.30
2023-01-23T12:58:08.085Z,18.10
2023-01-23T13:00:44.950Z,19.83
2023-01-23T13:03:25.890Z,19.50
2023-01-23T13:05:59.864Z,15.43
2023-01-23T13:09:00.033Z,18.50
2023-01-23T13:11:44.930Z,20.00
2023-01-23T13:14:22.802Z,17.60
2023-01-23T13:16:51.703Z,17.90
2023-01-23T13:19:45.517Z,21.30
2023-01-23T13:22:27.722Z,16.67
2023-01-23T13:25:17.057Z,20.67
2023-01-23T13:27:55.611Z,21.03
2023-01-23T13:30:22.539Z,20.50
2023-01-23T13:32:50.819Z,17.10
2023-01-23T13:35:39.959Z,19.27
2023-01-23T13:38:22.057Z,18.10
2023-01-23T13:41:04.378Z,17.13
2023-01-23T13:43:44.318Z,16.87
2023-01-23T14:21:56.742Z,17.23
2023-01-23T14:24:29.256Z,21.07
2023-01-23T14:27:09.438Z,16.33
2023-01-23T14:29:36.270Z,16.50
2023-01-23T14:32:03.178Z,17.13
2023-01-23T14:34:29.659Z,18.97
2023-01-23T14:37:08.750Z,17.53
2023-01-23T14:39:35.472Z,17.77
2023-01-23T14:42:03.680Z,17.60
2023-01-23T14:44:41.832Z,19.57
2023-01-23T14:47:17.769Z,19.07
2023-01-23T14:49:46.010Z,22.73
2023-01-23T14:52:22.523Z,27.23
2023-01-23T14:54:54.085Z,19.57
2023-01-23T14:57:22.141Z,21.23
2023-01-23T14:59:48.965Z,20.43
2023-01-23T15:02:35.982Z,20.03
2023-01-23T15:05:12.426Z,25.77
2023-01-23T15:08:05.936Z,20.80
2023-01-23T15:10:36.903Z,25.60
2023-01-23T15:13:06.469Z,21.50
2023-01-23T15:15:34.727Z,21.40
2023-01-23T15:18:02.351Z,22.10
2023-01-23T15:20:41.068Z,29.50
2023-01-23T15:23:33.998Z,29.73
2023-01-23T15:26:35.479Z,20.13
2023-01-23T15:29:09.376Z,20.63
2023-01-23T15:31:41.841Z,17.97
2023-01-23T15:34:14.658Z,21.97
2023-01-23T15:37:07.093Z,18.63
2023-01-23T15:39:40.729Z,18.90
2023-01-23T15:42:13.607Z,19.17
2023-01-23T15:44:40.831Z,21.80
2023-01-23T15:47:07.391Z,21.80
2023-01-23T15:49:35.784Z,17.77
2023-01-23T15:52:14.786Z,23.43
2023-01-23T15:54:41.487Z,21.63
2023-01-23T15:57:11.897Z,21.63
2023-01-23T15:59:38.491Z,20.53
2023-01-23T16:02:06.431Z,25.23
2023-01-23T16:04:33.990Z,23.30
2023-01-23T16:07:06.199Z,18.97
2023-01-23T16:09:35.450Z,19.47
2023-01-23T16:12:02.716Z,19.87
2023-01-23T16:14:29.231Z,23.03
2023-01-23T16:16:58.216Z,21.03
2023-01-23T16:19:31.201Z,22.40
2023-01-23T16:22:04.647Z,21.57
2023-01-23T16:24:36.730Z,17.93
2023-01-23T16:27:03.481Z,26.90
2023-01-23T16:29:32.553Z,23.40
2023-01-23T16:32:00.906Z,22.67
2023-01-23T16:34:27.908Z,20.43
2023-01-23T16:36:56.996Z,20.83
2023-01-23T16:39:26.130Z,20.60
2023-01-23T16:41:54.902Z,19.50
2023-01-23T16:44:23.890Z,17.20
2023-01-23T16:46:51.803Z,20.27
2023-01-23T16:49:19.061Z,22.10
2023-01-23T16:51:57.696Z,21.30
2023-01-23T16:54:24.282Z,19.93
2023-01-23T16:56:51.624Z,27.17
2023-01-23T16:59:21.459Z,31.00
2023-01-23T17:01:49.759Z,44.13
2023-01-23T17:04:18.065Z,24.67
2023-01-23T17:06:44.627Z,31.30
2023-01-23T17:09:12.934Z,20.20
2023-01-23T17:12:04.353Z,19.63
2023-01-23T17:14:31.466Z,16.50
2023-01-23T17:17:02.637Z,20.43
2023-01-23T17:19:31.810Z,18.73
2023-01-23T17:21:59.490Z,21.93
2023-01-23T17:24:26.197Z,21.87
2023-01-23T17:26:52.693Z,24.00
2023-01-23T17:29:20.056Z,22.90
2023-01-23T17:31:47.715Z,35.50
2023-01-23T17:34:21.350Z,39.00
2023-01-23T17:36:48.342Z,32.87
2023-01-23T17:39:14.929Z,22.90
2023-01-23T17:41:41.637Z,21.67
2023-01-23T17:44:08.157Z,21.00
2023-01-23T17:46:39.473Z,19.47
2023-01-23T17:49:27.313Z,18.60
2023-01-23T17:51:54.491Z,20.67
2023-01-23T17:54:21.082Z,18.47
2023-01-23T17:56:48.114Z,21.50
2023-01-23T17:59:14.684Z,26.57
2023-01-23T18:01:41.292Z,18.50
2023-01-23T18:04:15.612Z,21.90
2023-01-23T18:06:42.448Z,28.20
2023-01-23T18:09:08.889Z,25.97
2023-01-23T18:11:37.868Z,17.20
2023-01-23T18:14:39.866Z,19.07
2023-01-23T18:17:15.996Z,21.60
2023-01-23T18:19:42.771Z,18.17
2023-01-23T18:22:11.558Z,17.73
2023-01-23T18:24:38.623Z,22.83
2023-01-23T18:27:23.031Z,26.10
2023-01-23T18:30:09.746Z,41.70
2023-01-23T18:33:01.073Z,23.80
2023-01-23T18:35:35.430Z,23.83
2023-01-23T18:38:12.856Z,20.20
2023-01-23T18:41:02.973Z,20.07
2023-01-23T18:43:38.568Z,19.73
2023-01-23T18:46:17.614Z,19.33
2023-01-23T18:48:46.199Z,18.27
2023-01-23T18:51:15.740Z,20.60
2023-01-23T18:54:00.599Z,21.37
2023-01-23T18:56:32.630Z,20.77
2023-01-23T18:59:12.770Z,21.13
2023-01-23T19:01:58.210Z,22.90
2023-01-23T19:04:38.419Z,23.00
2023-01-23T19:07:15.213Z,21.53
2023-01-23T19:09:46.354Z,20.77
2023-01-23T19:12:24.971Z,18.50
2023-01-23T19:15:04.455Z,20.80
2023-01-23T19:17:40.203Z,22.10
2023-01-23T19:20:09.989Z,23.27
2023-01-23T19:22:52.611Z,20.20
2023-01-23T19:25:19.610Z,22.07
2023-01-23T19:27:52.903Z,23.70
2023-01-23T19:30:21.652Z,45.30
2023-01-23T19:32:49.401Z,25.53
2023-01-23T19:35:16.073Z,20.00
2023-01-23T19:37:43.751Z,24.57
2023-01-23T19:40:11.772Z,33.80
2023-01-23T19:42:52.436Z,22.47
2023-01-23T19:45:23.345Z,25.00
2023-01-23T19:47:50.602Z,20.73
2023-01-23T19:50:18.202Z,30.93
2023-01-23T19:52:46.170Z,30.10
2023-01-23T19:55:26.130Z,31.57
2023-01-23T19:57:53.447Z,31.23
2023-01-23T20:00:20.393Z,35.00
2023-01-23T20:02:46.982Z,26.43
2023-01-23T20:05:13.463Z,27.37
2023-01-23T20:07:39.952Z,45.23
2023-01-23T20:10:08.489Z,25.73
2023-01-23T20:12:51.905Z,32.53
2023-01-23T20:15:21.279Z,28.57
2023-01-23T20:17:48.273Z,22.63
2023-01-23T20:20:15.297Z,35.00
2023-01-23T20:22:43.385Z,26.37
2023-01-23T20:25:12.807Z,19.73
2023-01-23T20:27:40.974Z,22.73
2023-01-23T20:30:18.648Z,21.10
2023-01-23T20:32:45.553Z,19.90
2023-01-23T20:35:12.173Z,19.27
2023-01-23T20:37:38.681Z,20.00
2023-01-23T20:40:08.466Z,27.57
2023-01-23T20:42:35.346Z,25.03
2023-01-23T20:45:01.832Z,17.80
2023-01-23T20:47:28.345Z,17.27
2023-01-23T20:49:54.836Z,20.17
2023-01-23T20:52:40.295Z,19.63
2023-01-23T20:55:07.152Z,19.23
2023-01-23T20:57:52.287Z,19.73
2023-01-23T21:00:19.252Z,16.53
2023-01-23T21:02:45.736Z,17.47
2023-01-23T21:05:12.271Z,16.60
2023-01-23T21:07:38.786Z,22.23
2023-01-23T21:10:05.774Z,21.13
2023-01-23T21:12:32.317Z,18.87
2023-01-23T21:14:59.057Z,20.50
2023-01-23T21:17:25.682Z,19.30
2023-01-23T21:19:52.168Z,20.10
2023-01-23T21:22:18.633Z,19.00
2023-01-23T21:24:45.206Z,20.57
2023-01-23T21:27:13.812Z,17.70
2023-01-23T21:29:40.317Z,17.80
2023-01-23T21:32:06.795Z,19.17
2023-01-23T21:34:33.368Z,20.30
2023-01-23T21:36:59.877Z,20.67
2023-01-23T21:39:26.341Z,19.53
2023-01-23T21:41:52.836Z,18.67
2023-01-23T21:44:19.609Z,17.27
2023-01-23T21:46:46.912Z,16.60
2023-01-23T21:49:13.402Z,23.10
2023-01-23T21:51:40.001Z,21.40
2023-01-23T21:54:06.501Z,19.53
2023-01-23T21:56:33.270Z,18.27
2023-01-23T21:58:59.865Z,20.63
2023-01-23T22:01:32.680Z,18.10
2023-01-23T22:04:23.850Z,15.47
2023-01-23T22:06:54.928Z,19.50
2023-01-23T22:09:24.777Z,16.53
2023-01-23T22:11:51.532Z,17.00
2023-01-23T22:14:18.414Z,17.63
2023-01-23T22:16:50.117Z,16.47
2023-01-23T22:19:21.036Z,15.60
2023-01-23T22:21:49.187Z,17.70
2023-01-23T22:24:15.888Z,16.47
2023-01-23T22:26:42.769Z,20.63
2023-01-23T22:29:10.563Z,19.20
2023-01-23T22:31:37.093Z,20.00
2023-01-23T22:34:04.130Z,17.07
2023-01-23T22:36:30.623Z,21.87
2023-01-23T22:38:57.111Z,16.97
2023-01-23T22:41:24.168Z,19.43
2023-01-23T22:43:59.030Z,17.13
2023-01-23T22:46:25.907Z,16.73
2023-01-23T22:48:52.399Z,13.00
2023-01-23T22:51:24.840Z,18.37
2023-01-23T22:53:52.348Z,17.47
2023-01-23T22:56:19.180Z,15.33
2023-01-23T22:58:47.105Z,14.50
2023-01-23T23:01:13.682Z,18.30
2023-01-23T23:03:40.488Z,15.25
2023-01-23T23:06:09.264Z,12.30
2023-01-23T23:08:36.164Z,15.17
2023-01-23T23:11:06.099Z,19.37
2023-01-23T23:13:34.408Z,15.40
2023-01-23T23:16:10.629Z,14.60
2023-01-23T23:18:39.222Z,14.10
2023-01-23T23:21:10.962Z,14.60
2023-01-23T23:23:38.323Z,14.40
2023-01-23T23:26:08.307Z,13.30
2023-01-23T23:28:35.609Z,17.80
2023-01-23T23:31:02.414Z,12.47
2023-01-23T23:33:29.446Z,13.57
2023-01-23T23:35:56.002Z,11.23
2023-01-23T23:38:23.073Z,14.07
2023-01-23T23:41:06.087Z,12.40
2023-01-23T23:43:32.975Z,13.57
2023-01-23T23:46:02.150Z,12.17
2023-01-23T23:48:29.581Z,12.83
2023-01-23T23:50:56.648Z,13.20
2023-01-23T23:53:23.208Z,13.37
2023-01-23T23:55:50.030Z,13.77
2023-01-23T23:58:17.399Z,12.90
